Terminal Aerodrome Forecast
Issued by NWS

Home | Current Version | Previous Version | Text Only | Print | Product List | Glossary On
Versions: 1 2 3 4 5 6 7 8 9 10 11 12 13 14 15
000
FTUS42 KMLB 071131
TAFSUA
TAF
KSUA 071131Z 0712/0812 30004KT P6SM SCT005 BKN015
      TEMPO 0712/0713 5SM BR
     FM071400 31007KT P6SM SCT015 SCT250
     FM072100 03006KT P6SM BKN035
     FM080000 VRB03KT P6SM BKN250=

USA.gov is the U.S. government's official web portal to all federal, state and local government web resources and services.